createdAt,value
2019-01-15T00:00:38.617Z,0
2019-01-15T00:01:40.650Z,0
2019-01-15T00:02:43.076Z,0
2019-01-15T00:03:45.115Z,0
2019-01-15T00:04:47.164Z,0
2019-01-15T00:05:49.223Z,0
2019-01-15T00:06:51.268Z,0
2019-01-15T00:07:53.365Z,0
2019-01-15T00:08:55.676Z,0
2019-01-15T00:09:57.993Z,0
2019-01-15T00:11:00.315Z,0
2019-01-15T00:12:07.730Z,0
2019-01-15T00:13:10.299Z,0
2019-01-15T00:14:12.328Z,0
2019-01-15T00:15:14.377Z,0
2019-01-15T00:16:16.423Z,0
2019-01-15T00:17:18.442Z,0
2019-01-15T00:18:20.482Z,0
2019-01-15T00:19:22.529Z,0
2019-01-15T00:20:24.882Z,0
2019-01-15T00:21:26.919Z,0
2019-01-15T00:22:28.967Z,0
2019-01-15T00:23:31.002Z,0
2019-01-15T00:24:33.024Z,0
2019-01-15T00:25:35.051Z,0
2019-01-15T00:26:37.382Z,0
2019-01-15T00:27:39.715Z,0
2019-01-15T00:28:41.751Z,0
2019-01-15T00:29:43.798Z,0
2019-01-15T00:30:45.835Z,0
2019-01-15T00:31:47.885Z,0
2019-01-15T00:32:50.192Z,0
2019-01-15T00:33:52.234Z,0
2019-01-15T00:34:54.261Z,0
2019-01-15T00:35:56.312Z,0
2019-01-15T00:36:58.352Z,0
2019-01-15T00:38:00.397Z,0
2019-01-15T00:39:02.450Z,0
2019-01-15T00:40:04.491Z,0
2019-01-15T00:41:06.531Z,0
2019-01-15T00:42:15.019Z,0
2019-01-15T00:43:17.571Z,0
2019-01-15T00:44:19.589Z,0
2019-01-15T00:45:21.616Z,0
2019-01-15T00:46:23.636Z,0
2019-01-15T00:47:25.659Z,0
2019-01-15T00:48:27.710Z,0
2019-01-15T00:49:30.033Z,0
2019-01-15T00:50:32.071Z,0
2019-01-15T00:51:34.375Z,0
2019-01-15T00:52:36.438Z,0
2019-01-15T00:53:38.474Z,0
2019-01-15T00:54:40.511Z,0
2019-01-15T00:55:42.894Z,0
2019-01-15T00:56:44.919Z,0
2019-01-15T00:57:47.239Z,0
2019-01-15T00:58:49.264Z,0
2019-01-15T00:59:51.292Z,0
2019-01-15T01:00:53.374Z,0
2019-01-15T01:01:55.421Z,0
2019-01-15T01:02:57.457Z,0
2019-01-15T01:03:59.499Z,0
2019-01-15T01:05:01.559Z,0
2019-01-15T01:06:03.986Z,0
2019-01-15T01:07:06.090Z,0
2019-01-15T01:08:08.173Z,0
2019-01-15T01:09:10.200Z,0
2019-01-15T01:10:12.267Z,0
2019-01-15T01:11:14.311Z,0
2019-01-15T01:12:22.116Z,0
2019-01-15T01:13:24.338Z,0
2019-01-15T01:14:26.363Z,0
2019-01-15T01:15:28.400Z,0
2019-01-15T01:16:30.710Z,0
2019-01-15T01:17:32.755Z,0
2019-01-15T01:18:34.806Z,0
2019-01-15T01:19:36.845Z,0
2019-01-15T01:20:38.881Z,0
2019-01-15T01:21:40.925Z,0
2019-01-15T01:22:42.958Z,0
2019-01-15T01:23:45.401Z,0
2019-01-15T01:24:47.501Z,0
2019-01-15T01:25:49.540Z,0
2019-01-15T01:26:51.589Z,0
2019-01-15T01:27:53.999Z,0
2019-01-15T01:28:56.030Z,0
2019-01-15T01:29:58.059Z,0
2019-01-15T01:31:00.102Z,0
2019-01-15T01:32:03.166Z,0
2019-01-15T01:33:05.196Z,0
2019-01-15T01:34:07.519Z,0
2019-01-15T01:35:09.605Z,0
2019-01-15T01:36:11.644Z,0
2019-01-15T01:37:13.979Z,0
2019-01-15T01:38:16.072Z,0
2019-01-15T01:39:18.107Z,0
2019-01-15T01:40:20.180Z,0
2019-01-15T01:41:22.491Z,0
2019-01-15T01:42:29.360Z,0
2019-01-15T01:43:31.683Z,0
2019-01-15T01:44:33.720Z,0
2019-01-15T01:45:36.031Z,0
2019-01-15T01:46:38.067Z,0
2019-01-15T01:47:40.104Z,0
2019-01-15T01:48:42.138Z,0
2019-01-15T01:49:44.158Z,0
2019-01-15T01:50:46.192Z,0
2019-01-15T01:51:48.806Z,0
2019-01-15T01:52:50.852Z,0
2019-01-15T01:53:52.942Z,0
2019-01-15T01:54:54.988Z,0
2019-01-15T01:55:57.020Z,0
2019-01-15T01:56:59.063Z,0
2019-01-15T01:58:01.101Z,0
2019-01-15T01:59:03.137Z,0
2019-01-15T02:00:05.156Z,0
2019-01-15T02:01:07.222Z,0
2019-01-15T02:02:09.269Z,0
2019-01-15T02:03:11.309Z,0
2019-01-15T02:04:13.349Z,0
2019-01-15T02:05:15.382Z,0
2019-01-15T02:06:17.411Z,0
2019-01-15T02:07:19.465Z,0
2019-01-15T02:08:21.905Z,0
2019-01-15T02:09:23.995Z,0
2019-01-15T02:10:26.026Z,0
2019-01-15T02:11:28.073Z,0
2019-01-15T02:12:36.640Z,0
2019-01-15T02:13:39.128Z,0
2019-01-15T02:14:41.482Z,0
2019-01-15T02:15:44.191Z,0
2019-01-15T02:16:46.238Z,0
2019-01-15T02:17:48.278Z,0
2019-01-15T02:18:50.316Z,0
2019-01-15T02:19:52.742Z,0
2019-01-15T02:20:54.836Z,0
2019-01-15T02:21:56.880Z,0
2019-01-15T02:22:58.918Z,0
2019-01-15T02:24:00.969Z,0
2019-01-15T02:25:03.007Z,0
2019-01-15T02:26:05.043Z,0
2019-01-15T02:27:07.075Z,0
2019-01-15T02:28:09.120Z,0
2019-01-15T02:29:11.543Z,0
2019-01-15T02:30:13.870Z,0
2019-01-15T02:31:15.933Z,0
2019-01-15T02:32:18.384Z,0
2019-01-15T02:33:20.436Z,0
2019-01-15T02:34:22.475Z,0
2019-01-15T02:35:24.513Z,0
2019-01-15T02:36:26.963Z,0
2019-01-15T02:37:28.996Z,0
2019-01-15T02:38:31.413Z,0
2019-01-15T02:39:33.449Z,0
2019-01-15T02:40:35.506Z,0
2019-01-15T02:41:37.534Z,0
2019-01-15T02:42:46.340Z,0
2019-01-15T02:43:49.222Z,0
2019-01-15T02:44:51.552Z,0
2019-01-15T02:45:53.585Z,0
2019-01-15T02:46:55.674Z,0
2019-01-15T02:47:57.705Z,0
2019-01-15T02:49:00.058Z,0
2019-01-15T02:50:02.107Z,0
2019-01-15T02:51:04.169Z,0
2019-01-15T02:52:06.200Z,0
2019-01-15T02:53:08.223Z,0
2019-01-15T02:54:10.275Z,0
2019-01-15T02:55:12.326Z,0
2019-01-15T02:56:14.365Z,0
2019-01-15T02:57:16.416Z,0
2019-01-15T02:58:18.443Z,0
2019-01-15T02:59:20.466Z,0
2019-01-15T03:00:22.536Z,0
2019-01-15T03:01:24.859Z,0
2019-01-15T03:02:26.895Z,0
2019-01-15T03:03:28.933Z,0
2019-01-15T03:04:31.000Z,0
2019-01-15T03:05:33.021Z,0
2019-01-15T03:06:35.047Z,0
2019-01-15T03:07:37.087Z,0
2019-01-15T03:08:39.142Z,0
2019-01-15T03:09:41.575Z,0
2019-01-15T03:10:43.922Z,0
2019-01-15T03:11:45.970Z,0
2019-01-15T03:12:54.706Z,0
2019-01-15T03:13:58.870Z,0
2019-01-15T03:15:00.912Z,0
2019-01-15T03:16:02.953Z,0
2019-01-15T03:17:05.396Z,0
2019-01-15T03:18:07.807Z,0
2019-01-15T03:19:09.828Z,0
2019-01-15T03:20:11.896Z,0
2019-01-15T03:21:14.616Z,0
2019-01-15T03:22:17.220Z,0
2019-01-15T03:23:19.255Z,0
2019-01-15T03:24:21.285Z,0
2019-01-15T03:25:23.339Z,0
2019-01-15T03:26:25.791Z,0
2019-01-15T03:27:28.118Z,0
2019-01-15T03:28:30.202Z,0
2019-01-15T03:29:32.249Z,0
2019-01-15T03:30:34.350Z,0
2019-01-15T03:31:36.847Z,0
2019-01-15T03:32:39.311Z,0
2019-01-15T03:33:42.342Z,0
2019-01-15T03:34:44.374Z,0
2019-01-15T03:35:46.691Z,0
2019-01-15T03:36:48.756Z,0
2019-01-15T03:37:51.099Z,0
2019-01-15T03:38:53.441Z,0
2019-01-15T03:39:55.480Z,0
2019-01-15T03:40:57.530Z,0
2019-01-15T03:41:59.842Z,0
2019-01-15T03:43:03.686Z,0
2019-01-15T03:44:06.871Z,0
2019-01-15T03:45:08.918Z,0
2019-01-15T03:46:10.971Z,0
2019-01-15T03:47:13.297Z,0
2019-01-15T03:48:15.354Z,0
2019-01-15T03:49:17.405Z,0
2019-01-15T03:50:19.446Z,0
2019-01-15T03:51:22.174Z,0
2019-01-15T03:52:24.317Z,0
2019-01-15T03:53:26.954Z,0
2019-01-15T03:54:29.274Z,0
2019-01-15T03:55:31.719Z,0
2019-01-15T03:56:33.778Z,0
2019-01-15T03:57:35.849Z,0
2019-01-15T03:58:37.902Z,0
2019-01-15T03:59:39.929Z,0
2019-01-15T04:00:41.964Z,0
2019-01-15T04:01:44.069Z,0
2019-01-15T04:02:46.393Z,0
2019-01-15T04:03:48.706Z,0
2019-01-15T04:04:50.738Z,0
2019-01-15T04:05:52.865Z,0
2019-01-15T04:06:54.922Z,0
2019-01-15T04:07:56.961Z,0
2019-01-15T04:08:59.290Z,0
2019-01-15T04:10:01.334Z,0
2019-01-15T04:11:03.687Z,0
2019-01-15T04:12:05.762Z,0
2019-01-15T04:13:11.307Z,0
2019-01-15T04:14:13.941Z,0
2019-01-15T04:15:15.982Z,0
2019-01-15T04:16:18.704Z,0
2019-01-15T04:17:20.741Z,0
2019-01-15T04:18:22.784Z,0
2019-01-15T04:19:24.852Z,0
2019-01-15T04:20:27.255Z,0
2019-01-15T04:21:29.283Z,0
2019-01-15T04:22:31.351Z,0
2019-01-15T04:23:33.703Z,0
2019-01-15T04:24:35.729Z,0
2019-01-15T04:25:38.280Z,0
2019-01-15T04:26:40.726Z,0
2019-01-15T04:27:43.180Z,0
2019-01-15T04:28:45.800Z,0
2019-01-15T04:29:47.835Z,0
2019-01-15T04:30:49.894Z,0
2019-01-15T04:31:51.911Z,0
2019-01-15T04:32:54.350Z,0
2019-01-15T04:33:56.424Z,0
2019-01-15T04:34:58.850Z,0
2019-01-15T04:36:01.019Z,0
2019-01-15T04:37:03.066Z,0
2019-01-15T04:38:05.374Z,0
2019-01-15T04:39:07.406Z,0
2019-01-15T04:40:09.707Z,0
2019-01-15T04:41:12.336Z,0
2019-01-15T04:42:14.784Z,0
2019-01-15T04:43:19.743Z,0
2019-01-15T04:44:22.140Z,0
2019-01-15T04:45:24.202Z,0
2019-01-15T04:46:26.283Z,0
2019-01-15T04:47:28.340Z,0
2019-01-15T04:48:30.765Z,0
2019-01-15T04:49:32.846Z,0
2019-01-15T04:50:34.880Z,0
2019-01-15T04:51:36.918Z,0
2019-01-15T04:52:38.971Z,0
2019-01-15T04:53:41.014Z,0
2019-01-15T04:54:43.083Z,0
2019-01-15T04:55:45.129Z,0
2019-01-15T04:56:47.436Z,0
2019-01-15T04:57:49.487Z,0
2019-01-15T04:58:51.848Z,0
2019-01-15T04:59:54.337Z,0
2019-01-15T05:00:56.682Z,0
2019-01-15T05:01:59.012Z,0
2019-01-15T05:03:01.364Z,0
2019-01-15T05:04:03.403Z,0
2019-01-15T05:05:05.725Z,0
2019-01-15T05:06:08.043Z,0
2019-01-15T05:07:10.097Z,0
2019-01-15T05:08:12.149Z,0
2019-01-15T05:09:14.858Z,0
2019-01-15T05:10:16.906Z,0
2019-01-15T05:11:19.221Z,0
2019-01-15T05:12:21.555Z,0
2019-01-15T05:13:27.422Z,0
2019-01-15T05:14:29.689Z,0
2019-01-15T05:15:32.306Z,0
2019-01-15T05:16:34.355Z,0
2019-01-15T05:17:36.429Z,0
2019-01-15T05:18:38.800Z,0
2019-01-15T05:19:40.831Z,0
2019-01-15T05:20:42.903Z,0
2019-01-15T05:21:44.951Z,0
2019-01-15T05:22:47.008Z,0
2019-01-15T05:23:49.115Z,0
2019-01-15T05:24:51.840Z,0
2019-01-15T05:25:54.165Z,0
2019-01-15T05:26:56.906Z,0
2019-01-15T05:27:59.502Z,0
2019-01-15T05:29:01.842Z,0
2019-01-15T05:30:03.880Z,0
2019-01-15T05:31:06.231Z,0
2019-01-15T05:32:08.270Z,0
2019-01-15T05:33:10.321Z,0
2019-01-15T05:34:12.444Z,0
2019-01-15T05:35:14.799Z,0
2019-01-15T05:36:17.269Z,0
2019-01-15T05:37:19.607Z,0
2019-01-15T05:38:21.660Z,0
2019-01-15T05:39:24.009Z,0
2019-01-15T05:40:26.344Z,0
2019-01-15T05:41:28.396Z,0
2019-01-15T05:42:30.720Z,0
2019-01-15T05:43:35.594Z,0
2019-01-15T05:44:38.003Z,0
2019-01-15T05:45:40.321Z,0
2019-01-15T05:46:42.378Z,0
2019-01-15T05:47:44.816Z,0
2019-01-15T05:48:47.419Z,0
2019-01-15T05:49:50.742Z,0
2019-01-15T05:50:52.964Z,0
2019-01-15T05:51:55.320Z,0
2019-01-15T05:52:57.369Z,0
2019-01-15T05:53:59.459Z,0
2019-01-15T05:55:01.525Z,0
2019-01-15T05:56:04.240Z,0
2019-01-15T05:57:06.582Z,0
2019-01-15T05:58:08.618Z,0
2019-01-15T05:59:10.950Z,0
2019-01-15T06:00:12.994Z,0
2019-01-15T06:01:15.028Z,0
2019-01-15T06:02:17.078Z,0
2019-01-15T06:03:19.125Z,0
2019-01-15T06:04:21.150Z,0
2019-01-15T06:05:23.196Z,0
2019-01-15T06:06:25.252Z,0
2019-01-15T06:07:33.452Z,0
2019-01-15T06:08:35.821Z,0
2019-01-15T06:09:38.143Z,0
2019-01-15T06:10:40.580Z,0
2019-01-15T06:11:42.611Z,0
2019-01-15T06:12:44.661Z,0
2019-01-15T06:13:47.025Z,0
2019-01-15T06:14:49.061Z,0
2019-01-15T06:15:51.095Z,0
2019-01-15T06:16:53.143Z,0
2019-01-15T06:17:55.185Z,0
2019-01-15T06:18:57.507Z,0
2019-01-15T06:19:59.604Z,0
2019-01-15T06:21:01.843Z,0
2019-01-15T06:22:04.237Z,0
2019-01-15T06:23:06.270Z,0
2019-01-15T06:24:08.301Z,0
2019-01-15T06:25:10.342Z,0
2019-01-15T06:26:12.699Z,0
2019-01-15T06:27:14.742Z,0
2019-01-15T06:28:16.778Z,0
2019-01-15T06:29:18.884Z,0
2019-01-15T06:30:21.182Z,0
2019-01-15T06:31:23.633Z,0
2019-01-15T06:32:25.687Z,0
2019-01-15T06:33:28.010Z,0
2019-01-15T06:34:30.721Z,0
2019-01-15T06:35:33.336Z,0
2019-01-15T06:36:35.396Z,0
2019-01-15T06:37:37.841Z,0
2019-01-15T06:38:39.914Z,0
2019-01-15T06:39:41.962Z,0
2019-01-15T06:40:44.002Z,0
2019-01-15T06:41:46.046Z,0
2019-01-15T06:42:48.084Z,0
2019-01-15T06:43:50.422Z,0
2019-01-15T06:44:52.450Z,0
2019-01-15T06:45:54.494Z,0
2019-01-15T06:46:56.530Z,0
2019-01-15T06:47:58.574Z,0
2019-01-15T06:49:00.606Z,0
2019-01-15T06:50:02.938Z,0
2019-01-15T06:51:04.967Z,0
2019-01-15T06:52:07.019Z,0
2019-01-15T06:53:09.077Z,4
2019-01-15T06:54:11.410Z,0
2019-01-15T06:55:15.313Z,0
2019-01-15T06:56:17.346Z,0
2019-01-15T06:57:19.394Z,4
2019-01-15T06:58:21.438Z,8
2019-01-15T06:59:23.477Z,4
2019-01-15T07:00:25.526Z,4
2019-01-15T07:01:27.569Z,8
2019-01-15T07:02:29.597Z,8
2019-01-15T07:03:31.639Z,12
2019-01-15T07:04:33.666Z,12
2019-01-15T07:05:35.703Z,16
2019-01-15T07:06:38.033Z,12
2019-01-15T07:07:40.078Z,12
2019-01-15T07:08:42.139Z,12
2019-01-15T07:09:44.219Z,16
2019-01-15T07:10:46.241Z,20
2019-01-15T07:11:48.285Z,24
2019-01-15T07:12:50.318Z,24
2019-01-15T07:13:56.958Z,28
2019-01-15T07:14:59.194Z,32
2019-01-15T07:16:01.752Z,44
2019-01-15T07:17:04.080Z,48
2019-01-15T07:18:06.113Z,60
2019-01-15T07:19:08.539Z,60
2019-01-15T07:20:10.569Z,72
2019-01-15T07:21:12.608Z,84
2019-01-15T07:22:14.646Z,88
2019-01-15T07:23:16.669Z,88
2019-01-15T07:24:18.713Z,84
2019-01-15T07:25:20.756Z,104
2019-01-15T07:26:22.794Z,148
2019-01-15T07:27:24.838Z,160
2019-01-15T07:28:26.868Z,152
2019-01-15T07:29:29.220Z,156
2019-01-15T07:30:31.346Z,172
2019-01-15T07:31:33.773Z,180
2019-01-15T07:32:35.800Z,216
2019-01-15T07:33:38.146Z,188
2019-01-15T07:34:40.191Z,228
2019-01-15T07:35:42.242Z,244
2019-01-15T07:36:44.279Z,264
2019-01-15T07:37:46.392Z,328
2019-01-15T07:38:48.430Z,348
2019-01-15T07:39:50.475Z,336
2019-01-15T07:40:52.524Z,380
2019-01-15T07:41:54.578Z,464
2019-01-15T07:42:56.625Z,500
2019-01-15T07:44:04.255Z,556
2019-01-15T07:45:06.515Z,608
2019-01-15T07:46:08.844Z,524
2019-01-15T07:47:10.875Z,464
2019-01-15T07:48:12.921Z,536
2019-01-15T07:49:14.958Z,492
2019-01-15T07:50:16.999Z,596
2019-01-15T07:51:19.032Z,496
2019-01-15T07:52:21.654Z,640
2019-01-15T07:53:23.769Z,544
2019-01-15T07:54:26.087Z,592
2019-01-15T07:55:28.131Z,628
2019-01-15T07:56:30.456Z,648
2019-01-15T07:57:58.196Z,884
2019-01-15T07:59:00.320Z,988
2019-01-15T08:00:02.435Z,904
2019-01-15T08:01:04.578Z,928
2019-01-15T08:02:08.846Z,1072
2019-01-15T08:03:10.985Z,1216
2019-01-15T08:04:13.398Z,932
2019-01-15T08:05:15.549Z,1080
2019-01-15T08:06:17.684Z,1016
2019-01-15T08:07:19.808Z,920
2019-01-15T08:08:22.209Z,828
2019-01-15T08:09:24.404Z,1092
2019-01-15T08:10:26.627Z,1148
2019-01-15T08:11:28.779Z,1120
2019-01-15T08:12:31.311Z,1412
2019-01-15T08:13:33.461Z,1128
2019-01-15T08:14:35.586Z,1348
2019-01-15T08:15:37.739Z,1480
2019-01-15T08:16:39.889Z,1056
2019-01-15T08:17:42.008Z,1220
2019-01-15T08:18:44.164Z,1064
2019-01-15T08:19:46.314Z,1188
2019-01-15T08:20:48.881Z,860
2019-01-15T08:21:51.015Z,768
2019-01-15T08:22:53.137Z,852
2019-01-15T08:23:55.548Z,1224
2019-01-15T08:24:57.676Z,1476
2019-01-15T08:26:00.183Z,1184
2019-01-15T08:27:02.734Z,1012
2019-01-15T08:28:04.870Z,1228
2019-01-15T08:29:07.011Z,1192
2019-01-15T08:30:09.138Z,1040
2019-01-15T08:31:11.559Z,1248
2019-01-15T08:32:14.356Z,1512
2019-01-15T08:33:16.473Z,1328
2019-01-15T08:34:18.615Z,1160
2019-01-15T08:35:20.755Z,1144
2019-01-15T08:36:22.903Z,1140
2019-01-15T08:37:25.056Z,1796
2019-01-15T08:38:27.180Z,1956
2019-01-15T08:39:29.593Z,1908
2019-01-15T08:40:31.734Z,2192
2019-01-15T08:41:33.886Z,1696
2019-01-15T08:42:36.406Z,1696
2019-01-15T08:43:38.571Z,2244
2019-01-15T08:44:40.703Z,2220
2019-01-15T08:45:42.855Z,2024
2019-01-15T08:46:44.993Z,1364
2019-01-15T08:47:47.143Z,1756
2019-01-15T08:48:51.740Z,2036
2019-01-15T08:49:54.164Z,2288
2019-01-15T08:50:56.577Z,2708
2019-01-15T08:51:58.691Z,3916
2019-01-15T08:53:00.834Z,4372
2019-01-15T08:54:02.978Z,3712
2019-01-15T08:55:05.116Z,3352
2019-01-15T08:56:07.276Z,3420
2019-01-15T08:57:09.794Z,3444
2019-01-15T08:58:12.305Z,3140
2019-01-15T08:59:14.833Z,2528
2019-01-15T09:00:17.281Z,2736
2019-01-15T09:01:19.730Z,3144
2019-01-15T09:02:21.840Z,2992
2019-01-15T09:03:23.974Z,4136
2019-01-15T09:04:26.398Z,4832
2019-01-15T09:05:28.536Z,3956
2019-01-15T09:06:30.843Z,4092
2019-01-15T09:07:33.266Z,4360
2019-01-15T09:08:35.693Z,5264
2019-01-15T09:09:37.834Z,6484
2019-01-15T09:10:40.113Z,7268
2019-01-15T09:11:42.249Z,7552
2019-01-15T09:12:44.392Z,7380
2019-01-15T09:13:46.516Z,4664
2019-01-15T09:14:48.624Z,4020
2019-01-15T09:15:50.766Z,3308
2019-01-15T09:16:52.904Z,3224
2019-01-15T09:17:55.494Z,3848
2019-01-15T09:18:57.635Z,3696
2019-01-15T09:20:00.236Z,4924
2019-01-15T09:21:02.650Z,4568
2019-01-15T09:22:04.778Z,4276
2019-01-15T09:23:06.892Z,4660
2019-01-15T09:24:09.501Z,5180
2019-01-15T09:25:11.632Z,4276
2019-01-15T09:26:15.378Z,4408
2019-01-15T09:27:18.007Z,4068
2019-01-15T09:28:20.223Z,4500
2019-01-15T09:29:22.369Z,4748
2019-01-15T09:30:24.778Z,5340
2019-01-15T09:31:26.984Z,5016
2019-01-15T09:32:29.110Z,3432
2019-01-15T09:33:31.241Z,3572
2019-01-15T09:34:33.392Z,2932
2019-01-15T09:35:35.513Z,3072
2019-01-15T09:36:37.656Z,3312
2019-01-15T09:37:39.803Z,4040
2019-01-15T09:38:41.986Z,3532
2019-01-15T09:39:44.129Z,3840
2019-01-15T09:40:46.555Z,3676
2019-01-15T09:41:48.695Z,3580
2019-01-15T09:42:50.833Z,4032
2019-01-15T09:43:52.971Z,4920
2019-01-15T09:44:55.108Z,4168
2019-01-15T09:45:57.278Z,3488
2019-01-15T09:46:59.416Z,2824
2019-01-15T09:48:01.863Z,2176
2019-01-15T09:49:04.303Z,2404
2019-01-15T09:50:06.455Z,2884
2019-01-15T09:51:08.591Z,3344
2019-01-15T09:52:12.914Z,3816
2019-01-15T09:53:22.666Z,4020
2019-01-15T09:54:25.091Z,3960
2019-01-15T09:55:27.231Z,2728
2019-01-15T09:56:29.770Z,2708
2019-01-15T09:57:32.207Z,2880
2019-01-15T09:58:34.328Z,2728
2019-01-15T09:59:36.525Z,2948
2019-01-15T10:00:38.648Z,2844
2019-01-15T10:01:40.776Z,2124
2019-01-15T10:02:42.901Z,2712
2019-01-15T10:03:45.033Z,2372
2019-01-15T10:04:47.368Z,2188
2019-01-15T10:05:49.436Z,2404
2019-01-15T10:06:51.500Z,2924
2019-01-15T10:07:53.564Z,3852
2019-01-15T10:08:55.629Z,4924
2019-01-15T10:09:57.980Z,7048
2019-01-15T10:11:00.100Z,6000
2019-01-15T10:12:02.181Z,3480
2019-01-15T10:13:04.300Z,2844
2019-01-15T10:14:06.413Z,2524
2019-01-15T10:15:08.466Z,2976
2019-01-15T10:16:11.273Z,2716
2019-01-15T10:17:13.736Z,3636
2019-01-15T10:18:15.796Z,3880
2019-01-15T10:19:17.844Z,4360
2019-01-15T10:20:19.904Z,4028
2019-01-15T10:21:21.974Z,4236
2019-01-15T10:22:24.407Z,5632
2019-01-15T10:23:26.449Z,4984
2019-01-15T10:24:28.521Z,4380
2019-01-15T10:25:30.580Z,3284
2019-01-15T10:26:32.643Z,3312
2019-01-15T10:27:34.705Z,3660
2019-01-15T10:28:36.821Z,3572
2019-01-15T10:29:38.870Z,4184
2019-01-15T10:30:40.920Z,4148
2019-01-15T10:31:43.575Z,5016
2019-01-15T10:32:45.619Z,5012
2019-01-15T10:33:47.683Z,3900
2019-01-15T10:34:49.742Z,3308
2019-01-15T10:35:51.821Z,2368
2019-01-15T10:36:53.916Z,2500
2019-01-15T10:37:55.974Z,2696
2019-01-15T10:38:58.017Z,3032
2019-01-15T10:40:00.083Z,3248
2019-01-15T10:41:02.164Z,3476
2019-01-15T10:42:04.225Z,3800
2019-01-15T10:43:06.300Z,2904
2019-01-15T10:44:08.356Z,2484
2019-01-15T10:45:10.477Z,2384
2019-01-15T10:46:12.918Z,2464
2019-01-15T10:47:14.967Z,2716
2019-01-15T10:48:17.038Z,3356
2019-01-15T10:49:19.106Z,3816
2019-01-15T10:50:21.176Z,4096
2019-01-15T10:51:23.230Z,3640
2019-01-15T10:52:26.785Z,3552
2019-01-15T10:53:29.262Z,2648
2019-01-15T10:54:31.310Z,2372
2019-01-15T10:55:33.381Z,2664
2019-01-15T10:56:35.436Z,2416
2019-01-15T10:57:37.774Z,2276
2019-01-15T10:58:39.823Z,2152
2019-01-15T10:59:41.883Z,2184
2019-01-15T11:00:43.955Z,2052
2019-01-15T11:01:46.025Z,2308
2019-01-15T11:02:48.089Z,2408
2019-01-15T11:03:50.137Z,2560
2019-01-15T11:04:52.194Z,2620
2019-01-15T11:05:54.263Z,3200
2019-01-15T11:06:56.330Z,3104
2019-01-15T11:07:58.779Z,3508
2019-01-15T11:09:00.846Z,3124
2019-01-15T11:10:02.912Z,2840
2019-01-15T11:11:04.977Z,3688
2019-01-15T11:12:07.112Z,4112
2019-01-15T11:13:09.185Z,3956
2019-01-15T11:14:11.260Z,3376
2019-01-15T11:15:13.704Z,3284
2019-01-15T11:16:15.759Z,3180
2019-01-15T11:17:18.192Z,2888
2019-01-15T11:18:20.244Z,2608
2019-01-15T11:19:22.313Z,2720
2019-01-15T11:20:24.370Z,3224
2019-01-15T11:21:26.479Z,3144
2019-01-15T11:22:28.524Z,3000
2019-01-15T11:23:30.584Z,3212
2019-01-15T11:24:32.638Z,3312
2019-01-15T11:25:34.697Z,3136
2019-01-15T11:26:36.749Z,3512
2019-01-15T11:27:38.798Z,3764
2019-01-15T11:28:40.866Z,3804
2019-01-15T11:29:42.929Z,3288
2019-01-15T11:30:44.997Z,2924
2019-01-15T11:31:47.051Z,2860
2019-01-15T11:32:49.077Z,3308
2019-01-15T11:33:51.418Z,2884
2019-01-15T11:34:53.458Z,2948
2019-01-15T11:35:55.799Z,3012
2019-01-15T11:36:57.868Z,2952
2019-01-15T11:37:59.937Z,2544
2019-01-15T11:39:02.369Z,2408
2019-01-15T11:40:04.417Z,2524
2019-01-15T11:41:06.464Z,2584
2019-01-15T11:42:08.518Z,2512
2019-01-15T11:43:10.579Z,2200
2019-01-15T11:44:12.969Z,1992
2019-01-15T11:45:15.030Z,2048
2019-01-15T11:46:17.077Z,1836
2019-01-15T11:47:19.143Z,1760
2019-01-15T11:48:21.204Z,1744
2019-01-15T11:49:23.268Z,1788
2019-01-15T11:50:25.321Z,1792
2019-01-15T11:51:27.466Z,1720
2019-01-15T11:52:29.536Z,1708
2019-01-15T11:53:31.601Z,1648
2019-01-15T11:54:34.051Z,1644
2019-01-15T11:55:36.115Z,1612
2019-01-15T11:56:38.183Z,1672
2019-01-15T11:57:40.324Z,1836
2019-01-15T11:58:42.485Z,2124
2019-01-15T11:59:44.645Z,2096
2019-01-15T12:00:46.764Z,1964
2019-01-15T12:01:49.201Z,1952
2019-01-15T12:02:51.347Z,1824
2019-01-15T12:03:53.477Z,1764
2019-01-15T12:04:55.911Z,2096
2019-01-15T12:05:58.051Z,2024
2019-01-15T12:07:00.186Z,2028
2019-01-15T12:08:02.302Z,1976
2019-01-15T12:09:05.178Z,1640
2019-01-15T12:10:07.598Z,1684
2019-01-15T12:11:10.036Z,1748
2019-01-15T12:12:12.163Z,2328
2019-01-15T12:13:14.606Z,2132
2019-01-15T12:14:16.754Z,2188
2019-01-15T12:15:18.869Z,2356
2019-01-15T12:16:21.000Z,2020
2019-01-15T12:17:23.132Z,2056
2019-01-15T12:18:25.575Z,2168
2019-01-15T12:19:27.694Z,2216
2019-01-15T12:20:29.837Z,2216
2019-01-15T12:21:31.989Z,2232
2019-01-15T12:22:34.396Z,2064
2019-01-15T12:23:36.807Z,2108
2019-01-15T12:24:38.934Z,2336
2019-01-15T12:25:41.361Z,2224
2019-01-15T12:26:43.508Z,2272
2019-01-15T12:27:45.647Z,2356
2019-01-15T12:28:47.797Z,2180
2019-01-15T12:29:49.902Z,2416
2019-01-15T12:30:52.040Z,2304
2019-01-15T12:31:54.184Z,2364
2019-01-15T12:32:56.320Z,2188
2019-01-15T12:33:58.740Z,2292
2019-01-15T12:35:00.891Z,2248
2019-01-15T12:36:03.023Z,2076
2019-01-15T12:37:05.541Z,1968
2019-01-15T12:38:07.695Z,1960
2019-01-15T12:39:09.846Z,2032
2019-01-15T12:40:11.995Z,2016
2019-01-15T12:41:14.136Z,2248
2019-01-15T12:42:16.250Z,1920
2019-01-15T12:43:18.375Z,2092
2019-01-15T12:44:20.806Z,2140
2019-01-15T12:45:23.252Z,2048
2019-01-15T12:46:25.376Z,1860
2019-01-15T12:47:27.506Z,1972
2019-01-15T12:48:29.637Z,2272
2019-01-15T12:49:32.058Z,2272
2019-01-15T12:50:34.486Z,2160
2019-01-15T12:51:36.610Z,2284
2019-01-15T12:52:38.741Z,2000
2019-01-15T12:53:40.865Z,2116
2019-01-15T12:54:43.291Z,1820
2019-01-15T12:55:45.719Z,1836
2019-01-15T12:56:47.872Z,1632
2019-01-15T12:57:50.015Z,1616
2019-01-15T12:58:52.533Z,1660
2019-01-15T12:59:54.886Z,1608
2019-01-15T13:00:57.010Z,1776
2019-01-15T13:01:59.138Z,1600
2019-01-15T13:03:01.561Z,1692
2019-01-15T13:04:03.702Z,1568
2019-01-15T13:05:06.145Z,1544
2019-01-15T13:06:08.274Z,1360
2019-01-15T13:07:10.441Z,1368
2019-01-15T13:08:13.251Z,1204
2019-01-15T13:09:15.398Z,1276
2019-01-15T13:10:17.537Z,1288
2019-01-15T13:11:19.675Z,1284
2019-01-15T13:12:21.817Z,1332
2019-01-15T13:13:23.964Z,1292
2019-01-15T13:14:26.095Z,1428
2019-01-15T13:15:34.416Z,1300
2019-01-15T13:16:37.182Z,1424
2019-01-15T13:17:39.327Z,1268
2019-01-15T13:18:41.439Z,1464
2019-01-15T13:19:43.592Z,1212
2019-01-15T13:20:45.748Z,1260
2019-01-15T13:21:47.874Z,1404
2019-01-15T13:22:50.003Z,1264
2019-01-15T13:23:52.443Z,1168
2019-01-15T13:24:54.566Z,1172
2019-01-15T13:25:56.698Z,1108
2019-01-15T13:26:58.825Z,1144
2019-01-15T13:28:00.950Z,1156
2019-01-15T13:29:03.090Z,1212
2019-01-15T13:30:05.226Z,1084
2019-01-15T13:31:07.637Z,1120
2019-01-15T13:32:09.769Z,972
2019-01-15T13:33:12.939Z,988
2019-01-15T13:34:15.766Z,1112
2019-01-15T13:35:17.892Z,1072
2019-01-15T13:36:20.431Z,1132
2019-01-15T13:37:22.565Z,1112
2019-01-15T13:38:24.710Z,1276
2019-01-15T13:39:26.845Z,1440
2019-01-15T13:40:28.964Z,1536
2019-01-15T13:41:31.092Z,1644
2019-01-15T13:42:33.201Z,1564
2019-01-15T13:43:35.344Z,1616
2019-01-15T13:44:37.484Z,1616
2019-01-15T13:45:41.823Z,1716
2019-01-15T13:46:44.206Z,1712
2019-01-15T13:47:46.341Z,1572
2019-01-15T13:48:48.474Z,1600
2019-01-15T13:49:50.634Z,1572
2019-01-15T13:50:53.151Z,2104
2019-01-15T13:51:55.286Z,1492
2019-01-15T13:52:57.415Z,1600
2019-01-15T13:53:59.537Z,1788
2019-01-15T13:55:01.679Z,1612
2019-01-15T13:56:03.842Z,1616
2019-01-15T13:57:05.977Z,1432
2019-01-15T13:58:08.392Z,1352
2019-01-15T13:59:10.510Z,1516
2019-01-15T14:00:12.654Z,1580
2019-01-15T14:01:15.166Z,1528
2019-01-15T14:02:17.286Z,1520
2019-01-15T14:03:19.400Z,1668
2019-01-15T14:04:21.517Z,1644
2019-01-15T14:05:23.650Z,1476
2019-01-15T14:06:25.785Z,1556
2019-01-15T14:07:27.923Z,1448
2019-01-15T14:08:30.347Z,1500
2019-01-15T14:09:32.488Z,1580
2019-01-15T14:10:34.608Z,1508
2019-01-15T14:11:36.749Z,1256
2019-01-15T14:12:38.896Z,1340
2019-01-15T14:13:41.435Z,1276
2019-01-15T14:14:43.583Z,1276
2019-01-15T14:15:48.997Z,1412
2019-01-15T14:16:51.305Z,1256
2019-01-15T14:17:53.459Z,1164
2019-01-15T14:18:55.611Z,1356
2019-01-15T14:19:57.817Z,1376
2019-01-15T14:20:59.954Z,1332
2019-01-15T14:22:02.084Z,1116
2019-01-15T14:23:04.253Z,1312
2019-01-15T14:24:06.766Z,1200
2019-01-15T14:25:08.896Z,1240
2019-01-15T14:26:11.022Z,1156
2019-01-15T14:27:13.133Z,952
2019-01-15T14:28:15.270Z,992
2019-01-15T14:29:17.416Z,792
2019-01-15T14:30:19.557Z,888
2019-01-15T14:31:21.703Z,864
2019-01-15T14:32:23.850Z,860
2019-01-15T14:33:25.989Z,760
2019-01-15T14:34:28.119Z,688
2019-01-15T14:35:30.268Z,744